sensor_id;sensor_type;location;lat;lon;timestamp;P1;durP1;ratioP1;P2;durP2;ratioP2
57441;SDS011;43284;47.042;15.498;2023-06-10T00:01:12;10.57;;;6.10;;
57441;SDS011;43284;47.042;15.498;2023-06-10T00:03:37;12.15;;;6.80;;
57441;SDS011;43284;47.042;15.498;2023-06-10T00:06:04;9.55;;;5.72;;
57441;SDS011;43284;47.042;15.498;2023-06-10T00:08:30;11.05;;;5.97;;
57441;SDS011;43284;47.042;15.498;2023-06-10T00:10:56;10.93;;;5.40;;
57441;SDS011;43284;47.042;15.498;2023-06-10T00:13:22;9.50;;;5.40;;
57441;SDS011;43284;47.042;15.498;2023-06-10T00:15:47;9.75;;;5.80;;
57441;SDS011;43284;47.042;15.498;2023-06-10T00:18:13;10.48;;;5.35;;
57441;SDS011;43284;47.042;15.498;2023-06-10T00:20:39;9.93;;;5.78;;
57441;SDS011;43284;47.042;15.498;2023-06-10T00:23:05;10.18;;;5.82;;
57441;SDS011;43284;47.042;15.498;2023-06-10T00:25:33;12.32;;;5.03;;
57441;SDS011;43284;47.042;15.498;2023-06-10T00:27:59;10.13;;;5.28;;
57441;SDS011;43284;47.042;15.498;2023-06-10T00:30:24;10.13;;;5.22;;
57441;SDS011;43284;47.042;15.498;2023-06-10T00:32:50;10.20;;;5.88;;
57441;SDS011;43284;47.042;15.498;2023-06-10T00:35:15;13.32;;;6.03;;
57441;SDS011;43284;47.042;15.498;2023-06-10T00:37:41;11.15;;;5.70;;
57441;SDS011;43284;47.042;15.498;2023-06-10T00:40:07;9.55;;;4.88;;
57441;SDS011;43284;47.042;15.498;2023-06-10T00:42:35;8.35;;;5.25;;
57441;SDS011;43284;47.042;15.498;2023-06-10T00:45:01;9.15;;;5.00;;
57441;SDS011;43284;47.042;15.498;2023-06-10T00:47:27;10.77;;;5.38;;
57441;SDS011;43284;47.042;15.498;2023-06-10T00:49:53;12.50;;;5.30;;
57441;SDS011;43284;47.042;15.498;2023-06-10T00:52:19;8.48;;;5.22;;
57441;SDS011;43284;47.042;15.498;2023-06-10T00:54:47;7.60;;;4.82;;
57441;SDS011;43284;47.042;15.498;2023-06-10T00:57:13;10.45;;;5.53;;
57441;SDS011;43284;47.042;15.498;2023-06-10T00:59:39;7.57;;;5.07;;
57441;SDS011;43284;47.042;15.498;2023-06-10T01:02:06;11.35;;;5.82;;
57441;SDS011;43284;47.042;15.498;2023-06-10T01:04:32;10.57;;;5.05;;
57441;SDS011;43284;47.042;15.498;2023-06-10T01:09:57;7.20;;;4.45;;
57441;SDS011;43284;47.042;15.498;2023-06-10T01:14:50;13.52;;;5.70;;
57441;SDS011;43284;47.042;15.498;2023-06-10T01:17:17;11.85;;;5.63;;
57441;SDS011;43284;47.042;15.498;2023-06-10T01:19:43;10.48;;;5.38;;
57441;SDS011;43284;47.042;15.498;2023-06-10T01:22:09;7.53;;;4.85;;
57441;SDS011;43284;47.042;15.498;2023-06-10T01:24:36;12.80;;;5.97;;
57441;SDS011;43284;47.042;15.498;2023-06-10T01:27:05;8.68;;;5.35;;
57441;SDS011;43284;47.042;15.498;2023-06-10T01:29:41;11.88;;;6.15;;
57441;SDS011;43284;47.042;15.498;2023-06-10T01:32:12;9.05;;;5.57;;
57441;SDS011;43284;47.042;15.498;2023-06-10T01:34:39;8.82;;;5.68;;
57441;SDS011;43284;47.042;15.498;2023-06-10T01:37:08;9.82;;;6.55;;
57441;SDS011;43284;47.042;15.498;2023-06-10T01:39:36;10.75;;;5.10;;
57441;SDS011;43284;47.042;15.498;2023-06-10T01:42:03;12.70;;;5.50;;
57441;SDS011;43284;47.042;15.498;2023-06-10T01:44:30;8.48;;;5.38;;
57441;SDS011;43284;47.042;15.498;2023-06-10T01:46:55;7.82;;;5.18;;
57441;SDS011;43284;47.042;15.498;2023-06-10T01:49:21;9.95;;;4.95;;
57441;SDS011;43284;47.042;15.498;2023-06-10T01:51:49;9.13;;;4.85;;
57441;SDS011;43284;47.042;15.498;2023-06-10T01:54:14;7.80;;;4.93;;
57441;SDS011;43284;47.042;15.498;2023-06-10T01:56:40;7.93;;;4.63;;
57441;SDS011;43284;47.042;15.498;2023-06-10T01:59:05;7.43;;;4.65;;
57441;SDS011;43284;47.042;15.498;2023-06-10T02:01:31;6.53;;;4.50;;
57441;SDS011;43284;47.042;15.498;2023-06-10T02:03:56;8.40;;;5.25;;
57441;SDS011;43284;47.042;15.498;2023-06-10T02:06:22;10.15;;;5.55;;
57441;SDS011;43284;47.042;15.498;2023-06-10T02:08:47;9.40;;;6.00;;
57441;SDS011;43284;47.042;15.498;2023-06-10T02:11:13;8.43;;;5.35;;
57441;SDS011;43284;47.042;15.498;2023-06-10T02:13:38;8.57;;;5.13;;
57441;SDS011;43284;47.042;15.498;2023-06-10T02:16:04;11.57;;;4.97;;
57441;SDS011;43284;47.042;15.498;2023-06-10T02:18:30;7.80;;;4.63;;
57441;SDS011;43284;47.042;15.498;2023-06-10T02:20:56;9.05;;;4.90;;
57441;SDS011;43284;47.042;15.498;2023-06-10T02:23:22;7.95;;;4.90;;
57441;SDS011;43284;47.042;15.498;2023-06-10T02:25:47;10.15;;;5.40;;
57441;SDS011;43284;47.042;15.498;2023-06-10T02:28:13;10.23;;;6.00;;
57441;SDS011;43284;47.042;15.498;2023-06-10T02:30:40;10.60;;;6.15;;
57441;SDS011;43284;47.042;15.498;2023-06-10T02:33:07;11.88;;;6.45;;
57441;SDS011;43284;47.042;15.498;2023-06-10T02:35:36;10.70;;;6.38;;
57441;SDS011;43284;47.042;15.498;2023-06-10T02:38:03;11.07;;;6.45;;
57441;SDS011;43284;47.042;15.498;2023-06-10T02:40:29;15.27;;;6.60;;
57441;SDS011;43284;47.042;15.498;2023-06-10T02:42:54;11.23;;;6.57;;
57441;SDS011;43284;47.042;15.498;2023-06-10T02:45:20;13.75;;;6.15;;
57441;SDS011;43284;47.042;15.498;2023-06-10T02:47:45;11.38;;;6.43;;
57441;SDS011;43284;47.042;15.498;2023-06-10T02:50:11;12.23;;;6.07;;
57441;SDS011;43284;47.042;15.498;2023-06-10T02:52:36;13.23;;;6.50;;
57441;SDS011;43284;47.042;15.498;2023-06-10T02:55:02;12.43;;;6.22;;
57441;SDS011;43284;47.042;15.498;2023-06-10T02:57:28;22.73;;;7.85;;
57441;SDS011;43284;47.042;15.498;2023-06-10T02:59:53;14.77;;;6.32;;
57441;SDS011;43284;47.042;15.498;2023-06-10T03:02:19;10.68;;;5.85;;
57441;SDS011;43284;47.042;15.498;2023-06-10T03:04:45;12.90;;;6.10;;
57441;SDS011;43284;47.042;15.498;2023-06-10T03:07:10;9.80;;;5.68;;
57441;SDS011;43284;47.042;15.498;2023-06-10T03:09:36;8.13;;;4.85;;
57441;SDS011;43284;47.042;15.498;2023-06-10T03:12:02;9.90;;;5.88;;
57441;SDS011;43284;47.042;15.498;2023-06-10T03:14:28;10.05;;;5.90;;
57441;SDS011;43284;47.042;15.498;2023-06-10T03:16:53;10.95;;;5.70;;
57441;SDS011;43284;47.042;15.498;2023-06-10T03:19:19;9.85;;;6.28;;
57441;SDS011;43284;47.042;15.498;2023-06-10T03:21:49;10.43;;;5.72;;
57441;SDS011;43284;47.042;15.498;2023-06-10T03:24:20;8.80;;;5.45;;
57441;SDS011;43284;47.042;15.498;2023-06-10T03:26:45;9.52;;;5.63;;
57441;SDS011;43284;47.042;15.498;2023-06-10T03:29:11;8.82;;;5.28;;
57441;SDS011;43284;47.042;15.498;2023-06-10T03:31:36;12.30;;;6.70;;
57441;SDS011;43284;47.042;15.498;2023-06-10T03:34:03;11.73;;;6.28;;
57441;SDS011;43284;47.042;15.498;2023-06-10T03:36:29;11.52;;;5.82;;
57441;SDS011;43284;47.042;15.498;2023-06-10T03:38:55;11.82;;;5.97;;
57441;SDS011;43284;47.042;15.498;2023-06-10T03:41:22;18.92;;;6.88;;
57441;SDS011;43284;47.042;15.498;2023-06-10T03:43:48;11.63;;;6.57;;
57441;SDS011;43284;47.042;15.498;2023-06-10T03:46:13;9.75;;;5.80;;
57441;SDS011;43284;47.042;15.498;2023-06-10T03:48:39;11.15;;;6.50;;
57441;SDS011;43284;47.042;15.498;2023-06-10T03:51:04;11.98;;;6.07;;
57441;SDS011;43284;47.042;15.498;2023-06-10T03:53:30;9.73;;;5.80;;
57441;SDS011;43284;47.042;15.498;2023-06-10T03:55:56;9.65;;;5.97;;
57441;SDS011;43284;47.042;15.498;2023-06-10T03:58:22;13.25;;;6.25;;
57441;SDS011;43284;47.042;15.498;2023-06-10T04:00:48;10.13;;;6.20;;
57441;SDS011;43284;47.042;15.498;2023-06-10T04:03:14;11.02;;;6.50;;
57441;SDS011;43284;47.042;15.498;2023-06-10T04:05:40;12.88;;;6.40;;
57441;SDS011;43284;47.042;15.498;2023-06-10T04:08:07;10.65;;;6.07;;
57441;SDS011;43284;47.042;15.498;2023-06-10T04:10:33;11.40;;;6.50;;
57441;SDS011;43284;47.042;15.498;2023-06-10T04:12:58;9.32;;;5.88;;
57441;SDS011;43284;47.042;15.498;2023-06-10T04:15:24;10.40;;;6.00;;
57441;SDS011;43284;47.042;15.498;2023-06-10T04:17:50;8.77;;;6.03;;
57441;SDS011;43284;47.042;15.498;2023-06-10T04:20:16;10.90;;;6.50;;
57441;SDS011;43284;47.042;15.498;2023-06-10T04:22:42;9.25;;;5.57;;
57441;SDS011;43284;47.042;15.498;2023-06-10T04:25:08;9.63;;;6.05;;
57441;SDS011;43284;47.042;15.498;2023-06-10T04:27:34;8.98;;;4.90;;
57441;SDS011;43284;47.042;15.498;2023-06-10T04:30:00;13.63;;;6.20;;
57441;SDS011;43284;47.042;15.498;2023-06-10T04:32:25;10.68;;;6.30;;
57441;SDS011;43284;47.042;15.498;2023-06-10T04:34:51;11.07;;;6.70;;
57441;SDS011;43284;47.042;15.498;2023-06-10T04:37:17;9.40;;;6.22;;
57441;SDS011;43284;47.042;15.498;2023-06-10T04:39:43;9.50;;;5.65;;
57441;SDS011;43284;47.042;15.498;2023-06-10T04:42:08;8.10;;;5.47;;
57441;SDS011;43284;47.042;15.498;2023-06-10T04:44:34;8.95;;;5.85;;
57441;SDS011;43284;47.042;15.498;2023-06-10T04:46:59;11.10;;;6.43;;
57441;SDS011;43284;47.042;15.498;2023-06-10T04:49:26;12.48;;;6.00;;
57441;SDS011;43284;47.042;15.498;2023-06-10T04:51:51;10.15;;;6.13;;
57441;SDS011;43284;47.042;15.498;2023-06-10T04:54:16;10.40;;;6.32;;
57441;SDS011;43284;47.042;15.498;2023-06-10T04:56:42;13.27;;;6.70;;
57441;SDS011;43284;47.042;15.498;2023-06-10T04:59:07;11.23;;;6.90;;
57441;SDS011;43284;47.042;15.498;2023-06-10T05:01:33;11.43;;;6.78;;
57441;SDS011;43284;47.042;15.498;2023-06-10T05:03:58;10.80;;;6.38;;
57441;SDS011;43284;47.042;15.498;2023-06-10T05:06:24;13.90;;;7.80;;
57441;SDS011;43284;47.042;15.498;2023-06-10T05:08:50;14.13;;;7.82;;
57441;SDS011;43284;47.042;15.498;2023-06-10T05:11:15;15.60;;;8.88;;
57441;SDS011;43284;47.042;15.498;2023-06-10T05:13:41;14.90;;;8.35;;
57441;SDS011;43284;47.042;15.498;2023-06-10T05:16:07;12.63;;;8.07;;
57441;SDS011;43284;47.042;15.498;2023-06-10T05:18:34;15.85;;;8.27;;
57441;SDS011;43284;47.042;15.498;2023-06-10T05:21:00;16.33;;;8.80;;
57441;SDS011;43284;47.042;15.498;2023-06-10T05:23:27;14.65;;;8.52;;
57441;SDS011;43284;47.042;15.498;2023-06-10T05:25:54;14.38;;;8.43;;
57441;SDS011;43284;47.042;15.498;2023-06-10T05:28:19;15.57;;;8.85;;
57441;SDS011;43284;47.042;15.498;2023-06-10T05:30:45;17.27;;;9.10;;
57441;SDS011;43284;47.042;15.498;2023-06-10T05:33:11;17.15;;;9.25;;
57441;SDS011;43284;47.042;15.498;2023-06-10T05:35:36;14.43;;;8.50;;
57441;SDS011;43284;47.042;15.498;2023-06-10T05:38:02;13.25;;;7.82;;
57441;SDS011;43284;47.042;15.498;2023-06-10T05:40:27;15.15;;;8.05;;
57441;SDS011;43284;47.042;15.498;2023-06-10T05:42:53;18.35;;;9.63;;
57441;SDS011;43284;47.042;15.498;2023-06-10T05:45:18;18.17;;;10.15;;
57441;SDS011;43284;47.042;15.498;2023-06-10T05:47:44;12.82;;;7.97;;
57441;SDS011;43284;47.042;15.498;2023-06-10T05:50:09;14.25;;;8.32;;
57441;SDS011;43284;47.042;15.498;2023-06-10T05:52:35;16.80;;;8.27;;
57441;SDS011;43284;47.042;15.498;2023-06-10T05:55:02;12.88;;;8.25;;
57441;SDS011;43284;47.042;15.498;2023-06-10T05:57:28;15.18;;;8.35;;
57441;SDS011;43284;47.042;15.498;2023-06-10T05:59:54;16.08;;;9.20;;
57441;SDS011;43284;47.042;15.498;2023-06-10T06:02:19;16.13;;;8.25;;
57441;SDS011;43284;47.042;15.498;2023-06-10T06:04:45;14.25;;;8.63;;
57441;SDS011;43284;47.042;15.498;2023-06-10T06:07:10;13.13;;;8.35;;
57441;SDS011;43284;47.042;15.498;2023-06-10T06:09:36;12.18;;;7.93;;
57441;SDS011;43284;47.042;15.498;2023-06-10T06:12:01;12.73;;;8.20;;
57441;SDS011;43284;47.042;15.498;2023-06-10T06:14:30;18.35;;;9.10;;
57441;SDS011;43284;47.042;15.498;2023-06-10T06:16:56;15.35;;;8.05;;
57441;SDS011;43284;47.042;15.498;2023-06-10T06:19:21;14.35;;;8.60;;
57441;SDS011;43284;47.042;15.498;2023-06-10T06:21:47;13.02;;;8.07;;
57441;SDS011;43284;47.042;15.498;2023-06-10T06:24:13;14.50;;;8.43;;
57441;SDS011;43284;47.042;15.498;2023-06-10T06:26:40;16.95;;;8.70;;
57441;SDS011;43284;47.042;15.498;2023-06-10T06:29:05;12.00;;;8.13;;
57441;SDS011;43284;47.042;15.498;2023-06-10T06:31:31;14.55;;;8.05;;
57441;SDS011;43284;47.042;15.498;2023-06-10T06:33:56;13.15;;;8.13;;
57441;SDS011;43284;47.042;15.498;2023-06-10T06:36:22;12.85;;;8.13;;
57441;SDS011;43284;47.042;15.498;2023-06-10T06:38:47;15.27;;;8.45;;
57441;SDS011;43284;47.042;15.498;2023-06-10T06:41:13;14.10;;;8.35;;
57441;SDS011;43284;47.042;15.498;2023-06-10T06:43:38;14.50;;;7.70;;
57441;SDS011;43284;47.042;15.498;2023-06-10T06:46:04;15.60;;;7.45;;
57441;SDS011;43284;47.042;15.498;2023-06-10T06:48:30;13.23;;;7.75;;
57441;SDS011;43284;47.042;15.498;2023-06-10T06:50:56;12.68;;;8.40;;
57441;SDS011;43284;47.042;15.498;2023-06-10T06:53:22;12.90;;;8.38;;
57441;SDS011;43284;47.042;15.498;2023-06-10T06:55:48;12.73;;;7.68;;
57441;SDS011;43284;47.042;15.498;2023-06-10T06:58:14;10.30;;;6.97;;
57441;SDS011;43284;47.042;15.498;2023-06-10T07:00:39;11.30;;;7.30;;
57441;SDS011;43284;47.042;15.498;2023-06-10T07:03:05;13.82;;;7.22;;
57441;SDS011;43284;47.042;15.498;2023-06-10T07:05:30;15.77;;;7.75;;
57441;SDS011;43284;47.042;15.498;2023-06-10T07:07:56;9.63;;;6.55;;
57441;SDS011;43284;47.042;15.498;2023-06-10T07:10:22;8.88;;;5.78;;
57441;SDS011;43284;47.042;15.498;2023-06-10T07:12:48;10.20;;;6.13;;
57441;SDS011;43284;47.042;15.498;2023-06-10T07:15:14;8.88;;;6.00;;
57441;SDS011;43284;47.042;15.498;2023-06-10T07:17:40;10.63;;;5.70;;
57441;SDS011;43284;47.042;15.498;2023-06-10T07:20:07;7.38;;;5.15;;
57441;SDS011;43284;47.042;15.498;2023-06-10T07:22:33;8.18;;;5.70;;
57441;SDS011;43284;47.042;15.498;2023-06-10T07:24:59;7.63;;;4.72;;
57441;SDS011;43284;47.042;15.498;2023-06-10T07:27:25;8.07;;;5.43;;
57441;SDS011;43284;47.042;15.498;2023-06-10T07:29:51;7.93;;;5.57;;
57441;SDS011;43284;47.042;15.498;2023-06-10T07:32:17;9.30;;;5.70;;
57441;SDS011;43284;47.042;15.498;2023-06-10T07:34:49;8.52;;;5.13;;
57441;SDS011;43284;47.042;15.498;2023-06-10T07:37:16;9.50;;;5.32;;
57441;SDS011;43284;47.042;15.498;2023-06-10T07:39:42;6.95;;;5.00;;
57441;SDS011;43284;47.042;15.498;2023-06-10T07:42:09;8.32;;;5.00;;
57441;SDS011;43284;47.042;15.498;2023-06-10T07:44:35;8.25;;;5.25;;
57441;SDS011;43284;47.042;15.498;2023-06-10T07:47:02;9.02;;;5.32;;
57441;SDS011;43284;47.042;15.498;2023-06-10T07:49:28;8.32;;;4.75;;
57441;SDS011;43284;47.042;15.498;2023-06-10T07:51:55;7.47;;;4.65;;
57441;SDS011;43284;47.042;15.498;2023-06-10T07:54:21;6.82;;;4.50;;
57441;SDS011;43284;47.042;15.498;2023-06-10T07:56:47;8.45;;;4.93;;
57441;SDS011;43284;47.042;15.498;2023-06-10T07:59:13;7.28;;;5.13;;
57441;SDS011;43284;47.042;15.498;2023-06-10T08:01:39;8.85;;;5.03;;
57441;SDS011;43284;47.042;15.498;2023-06-10T08:04:07;9.45;;;4.88;;
57441;SDS011;43284;47.042;15.498;2023-06-10T08:06:33;8.25;;;5.70;;
57441;SDS011;43284;47.042;15.498;2023-06-10T08:09:02;8.05;;;5.50;;
57441;SDS011;43284;47.042;15.498;2023-06-10T08:11:29;7.22;;;4.50;;
57441;SDS011;43284;47.042;15.498;2023-06-10T08:13:55;8.15;;;4.68;;
57441;SDS011;43284;47.042;15.498;2023-06-10T08:16:21;7.65;;;4.80;;
57441;SDS011;43284;47.042;15.498;2023-06-10T08:18:47;10.45;;;4.18;;
57441;SDS011;43284;47.042;15.498;2023-06-10T08:21:12;7.25;;;4.97;;
57441;SDS011;43284;47.042;15.498;2023-06-10T08:23:38;6.72;;;4.85;;
57441;SDS011;43284;47.042;15.498;2023-06-10T08:26:04;7.93;;;5.05;;
57441;SDS011;43284;47.042;15.498;2023-06-10T08:28:30;7.88;;;4.25;;
57441;SDS011;43284;47.042;15.498;2023-06-10T08:30:57;8.13;;;4.85;;
57441;SDS011;43284;47.042;15.498;2023-06-10T08:33:22;6.20;;;4.45;;
57441;SDS011;43284;47.042;15.498;2023-06-10T08:35:48;10.60;;;4.90;;
57441;SDS011;43284;47.042;15.498;2023-06-10T08:38:14;9.98;;;4.65;;
57441;SDS011;43284;47.042;15.498;2023-06-10T08:40:41;8.38;;;5.38;;
57441;SDS011;43284;47.042;15.498;2023-06-10T08:43:10;7.65;;;5.07;;
57441;SDS011;43284;47.042;15.498;2023-06-10T08:45:42;7.95;;;5.20;;
57441;SDS011;43284;47.042;15.498;2023-06-10T08:48:14;7.65;;;5.30;;
57441;SDS011;43284;47.042;15.498;2023-06-10T08:50:42;8.18;;;5.15;;
57441;SDS011;43284;47.042;15.498;2023-06-10T08:53:08;8.77;;;5.15;;
57441;SDS011;43284;47.042;15.498;2023-06-10T08:55:42;9.32;;;5.30;;
57441;SDS011;43284;47.042;15.498;2023-06-10T09:00:43;9.20;;;5.20;;
57441;SDS011;43284;47.042;15.498;2023-06-10T09:03:12;10.13;;;5.75;;
57441;SDS011;43284;47.042;15.498;2023-06-10T09:05:38;7.28;;;4.88;;
57441;SDS011;43284;47.042;15.498;2023-06-10T09:08:06;9.43;;;5.45;;
57441;SDS011;43284;47.042;15.498;2023-06-10T09:10:34;7.75;;;5.13;;
57441;SDS011;43284;47.042;15.498;2023-06-10T09:13:00;8.32;;;5.32;;
57441;SDS011;43284;47.042;15.498;2023-06-10T09:15:26;8.23;;;5.22;;
57441;SDS011;43284;47.042;15.498;2023-06-10T09:17:52;9.13;;;5.65;;
57441;SDS011;43284;47.042;15.498;2023-06-10T09:20:18;8.68;;;5.45;;
57441;SDS011;43284;47.042;15.498;2023-06-10T09:22:44;8.35;;;5.18;;
57441;SDS011;43284;47.042;15.498;2023-06-10T09:25:11;8.02;;;5.95;;
57441;SDS011;43284;47.042;15.498;2023-06-10T09:30:28;12.23;;;6.28;;
57441;SDS011;43284;47.042;15.498;2023-06-10T09:32:59;10.27;;;6.15;;
57441;SDS011;43284;47.042;15.498;2023-06-10T09:35:27;9.60;;;6.15;;
57441;SDS011;43284;47.042;15.498;2023-06-10T09:37:57;9.60;;;6.07;;
57441;SDS011;43284;47.042;15.498;2023-06-10T09:40:24;8.63;;;5.78;;
57441;SDS011;43284;47.042;15.498;2023-06-10T09:42:54;11.63;;;6.10;;
57441;SDS011;43284;47.042;15.498;2023-06-10T09:45:22;9.45;;;6.10;;
57441;SDS011;43284;47.042;15.498;2023-06-10T09:47:52;11.27;;;6.68;;
57441;SDS011;43284;47.042;15.498;2023-06-10T09:50:19;9.93;;;6.50;;
57441;SDS011;43284;47.042;15.498;2023-06-10T09:52:45;10.48;;;6.40;;
57441;SDS011;43284;47.042;15.498;2023-06-10T09:55:13;10.38;;;6.20;;
57441;SDS011;43284;47.042;15.498;2023-06-10T09:57:40;8.82;;;5.72;;
57441;SDS011;43284;47.042;15.498;2023-06-10T10:00:09;9.00;;;5.95;;
57441;SDS011;43284;47.042;15.498;2023-06-10T10:02:46;8.90;;;5.70;;
57441;SDS011;43284;47.042;15.498;2023-06-10T10:05:14;12.75;;;5.50;;
57441;SDS011;43284;47.042;15.498;2023-06-10T10:07:42;10.18;;;6.45;;
57441;SDS011;43284;47.042;15.498;2023-06-10T10:10:11;10.13;;;5.43;;
57441;SDS011;43284;47.042;15.498;2023-06-10T10:12:39;10.45;;;6.22;;
57441;SDS011;43284;47.042;15.498;2023-06-10T10:15:07;10.25;;;6.57;;
57441;SDS011;43284;47.042;15.498;2023-06-10T10:17:40;11.00;;;6.32;;
57441;SDS011;43284;47.042;15.498;2023-06-10T10:20:11;11.25;;;5.95;;
57441;SDS011;43284;47.042;15.498;2023-06-10T10:22:41;10.35;;;6.60;;
57441;SDS011;43284;47.042;15.498;2023-06-10T10:25:12;8.18;;;5.65;;
57441;SDS011;43284;47.042;15.498;2023-06-10T10:27:46;9.50;;;6.17;;
57441;SDS011;43284;47.042;15.498;2023-06-10T10:30:17;9.10;;;5.88;;
57441;SDS011;43284;47.042;15.498;2023-06-10T10:33:03;8.57;;;5.53;;
57441;SDS011;43284;47.042;15.498;2023-06-10T10:35:33;8.27;;;5.68;;
57441;SDS011;43284;47.042;15.498;2023-06-10T10:37:59;12.15;;;5.95;;
57441;SDS011;43284;47.042;15.498;2023-06-10T10:40:27;9.15;;;5.20;;
57441;SDS011;43284;47.042;15.498;2023-06-10T10:42:55;12.02;;;6.95;;
57441;SDS011;43284;47.042;15.498;2023-06-10T10:45:22;10.20;;;6.03;;
57441;SDS011;43284;47.042;15.498;2023-06-10T10:47:52;10.27;;;5.78;;
57441;SDS011;43284;47.042;15.498;2023-06-10T10:50:20;8.90;;;5.32;;
57441;SDS011;43284;47.042;15.498;2023-06-10T10:52:59;8.20;;;5.32;;
57441;SDS011;43284;47.042;15.498;2023-06-10T10:55:30;8.40;;;5.88;;
57441;SDS011;43284;47.042;15.498;2023-06-10T10:58:06;7.18;;;5.07;;
57441;SDS011;43284;47.042;15.498;2023-06-10T11:00:33;7.10;;;4.65;;
57441;SDS011;43284;47.042;15.498;2023-06-10T11:03:05;6.68;;;4.50;;
57441;SDS011;43284;47.042;15.498;2023-06-10T11:05:41;7.93;;;5.50;;
57441;SDS011;43284;47.042;15.498;2023-06-10T11:09:03;6.93;;;5.65;;
57441;SDS011;43284;47.042;15.498;2023-06-10T11:11:19;8.02;;;5.05;;
57441;SDS011;43284;47.042;15.498;2023-06-10T11:19:33;7.38;;;4.72;;
57441;SDS011;43284;47.042;15.498;2023-06-10T11:22:02;7.53;;;5.07;;
57441;SDS011;43284;47.042;15.498;2023-06-10T11:24:29;8.32;;;5.03;;
57441;SDS011;43284;47.042;15.498;2023-06-10T11:27:14;7.63;;;5.15;;
57441;SDS011;43284;47.042;15.498;2023-06-10T11:30:25;5.57;;;4.15;;
57441;SDS011;43284;47.042;15.498;2023-06-10T11:32:51;7.45;;;4.78;;
57441;SDS011;43284;47.042;15.498;2023-06-10T11:35:18;7.50;;;5.13;;
57441;SDS011;43284;47.042;15.498;2023-06-10T11:37:46;10.30;;;5.13;;
57441;SDS011;43284;47.042;15.498;2023-06-10T11:40:13;6.35;;;4.57;;
57441;SDS011;43284;47.042;15.498;2023-06-10T11:42:42;6.43;;;4.30;;
57441;SDS011;43284;47.042;15.498;2023-06-10T11:45:08;5.82;;;4.32;;
57441;SDS011;43284;47.042;15.498;2023-06-10T11:47:35;8.82;;;4.40;;
57441;SDS011;43284;47.042;15.498;2023-06-10T11:50:01;7.25;;;4.85;;
57441;SDS011;43284;47.042;15.498;2023-06-10T11:52:28;7.43;;;4.82;;
57441;SDS011;43284;47.042;15.498;2023-06-10T11:55:05;8.23;;;4.93;;
57441;SDS011;43284;47.042;15.498;2023-06-10T11:57:34;5.65;;;3.75;;
57441;SDS011;43284;47.042;15.498;2023-06-10T12:00:04;6.82;;;3.83;;
57441;SDS011;43284;47.042;15.498;2023-06-10T12:02:31;5.47;;;3.72;;
57441;SDS011;43284;47.042;15.498;2023-06-10T12:05:09;5.70;;;3.95;;
57441;SDS011;43284;47.042;15.498;2023-06-10T12:07:37;5.28;;;3.60;;
57441;SDS011;43284;47.042;15.498;2023-06-10T12:10:03;6.80;;;4.25;;
57441;SDS011;43284;47.042;15.498;2023-06-10T12:12:29;5.75;;;4.22;;
57441;SDS011;43284;47.042;15.498;2023-06-10T12:14:59;6.43;;;4.30;;
57441;SDS011;43284;47.042;15.498;2023-06-10T12:20:03;6.80;;;4.57;;
57441;SDS011;43284;47.042;15.498;2023-06-10T12:22:41;5.53;;;3.75;;
57441;SDS011;43284;47.042;15.498;2023-06-10T12:25:09;6.18;;;4.15;;
57441;SDS011;43284;47.042;15.498;2023-06-10T12:27:37;5.55;;;4.00;;
57441;SDS011;43284;47.042;15.498;2023-06-10T12:30:04;5.15;;;4.25;;
57441;SDS011;43284;47.042;15.498;2023-06-10T12:33:04;7.75;;;4.30;;
57441;SDS011;43284;47.042;15.498;2023-06-10T12:35:24;6.45;;;4.22;;
57441;SDS011;43284;47.042;15.498;2023-06-10T12:38:09;6.40;;;3.95;;
57441;SDS011;43284;47.042;15.498;2023-06-10T12:40:37;4.75;;;3.67;;
57441;SDS011;43284;47.042;15.498;2023-06-10T12:43:07;5.88;;;4.05;;
57441;SDS011;43284;47.042;15.498;2023-06-10T12:45:36;5.35;;;4.10;;
57441;SDS011;43284;47.042;15.498;2023-06-10T12:48:10;6.97;;;4.25;;
57441;SDS011;43284;47.042;15.498;2023-06-10T12:50:44;10.52;;;4.32;;
57441;SDS011;43284;47.042;15.498;2023-06-10T12:53:24;6.35;;;3.67;;
57441;SDS011;43284;47.042;15.498;2023-06-10T12:55:53;5.85;;;3.95;;
57441;SDS011;43284;47.042;15.498;2023-06-10T12:58:20;5.00;;;3.95;;
57441;SDS011;43284;47.042;15.498;2023-06-10T13:00:47;4.75;;;3.95;;
57441;SDS011;43284;47.042;15.498;2023-06-10T13:03:14;8.10;;;4.60;;
57441;SDS011;43284;47.042;15.498;2023-06-10T13:05:40;7.60;;;4.63;;
57441;SDS011;43284;47.042;15.498;2023-06-10T13:08:07;6.38;;;4.07;;
57441;SDS011;43284;47.042;15.498;2023-06-10T13:10:36;5.53;;;4.15;;
57441;SDS011;43284;47.042;15.498;2023-06-10T13:13:03;6.57;;;4.38;;
57441;SDS011;43284;47.042;15.498;2023-06-10T13:15:33;7.30;;;3.80;;
57441;SDS011;43284;47.042;15.498;2023-06-10T13:18:02;6.20;;;3.95;;
57441;SDS011;43284;47.042;15.498;2023-06-10T13:20:29;6.07;;;4.38;;
57441;SDS011;43284;47.042;15.498;2023-06-10T13:22:56;5.85;;;4.05;;
57441;SDS011;43284;47.042;15.498;2023-06-10T13:25:22;5.10;;;3.70;;
57441;SDS011;43284;47.042;15.498;2023-06-10T13:27:48;4.22;;;3.28;;
57441;SDS011;43284;47.042;15.498;2023-06-10T13:30:14;3.85;;;3.28;;
57441;SDS011;43284;47.042;15.498;2023-06-10T13:32:40;4.68;;;3.72;;
57441;SDS011;43284;47.042;15.498;2023-06-10T13:35:06;4.63;;;3.63;;
57441;SDS011;43284;47.042;15.498;2023-06-10T13:37:33;5.50;;;4.03;;
57441;SDS011;43284;47.042;15.498;2023-06-10T13:40:00;4.35;;;3.45;;
57441;SDS011;43284;47.042;15.498;2023-06-10T13:42:27;4.03;;;3.33;;
57441;SDS011;43284;47.042;15.498;2023-06-10T13:44:54;5.22;;;3.38;;
57441;SDS011;43284;47.042;15.498;2023-06-10T13:47:20;6.10;;;3.72;;
57441;SDS011;43284;47.042;15.498;2023-06-10T13:49:46;5.45;;;3.40;;
57441;SDS011;43284;47.042;15.498;2023-06-10T13:52:12;4.07;;;3.42;;
57441;SDS011;43284;47.042;15.498;2023-06-10T13:54:38;5.95;;;3.17;;
57441;SDS011;43284;47.042;15.498;2023-06-10T13:57:04;5.32;;;3.50;;
57441;SDS011;43284;47.042;15.498;2023-06-10T13:59:30;8.93;;;3.42;;
57441;SDS011;43284;47.042;15.498;2023-06-10T14:01:57;5.53;;;3.92;;
57441;SDS011;43284;47.042;15.498;2023-06-10T14:04:23;6.15;;;4.07;;
57441;SDS011;43284;47.042;15.498;2023-06-10T14:06:49;4.95;;;3.60;;
57441;SDS011;43284;47.042;15.498;2023-06-10T14:09:15;4.53;;;2.97;;
57441;SDS011;43284;47.042;15.498;2023-06-10T14:11:41;6.10;;;3.35;;
57441;SDS011;43284;47.042;15.498;2023-06-10T14:14:07;4.85;;;3.50;;
57441;SDS011;43284;47.042;15.498;2023-06-10T14:16:34;6.13;;;3.85;;
57441;SDS011;43284;47.042;15.498;2023-06-10T14:19:00;5.68;;;3.95;;
57441;SDS011;43284;47.042;15.498;2023-06-10T14:21:26;8.38;;;4.43;;
57441;SDS011;43284;47.042;15.498;2023-06-10T14:23:52;6.95;;;4.60;;
57441;SDS011;43284;47.042;15.498;2023-06-10T14:26:19;6.13;;;4.03;;
57441;SDS011;43284;47.042;15.498;2023-06-10T14:28:49;6.35;;;3.83;;
57441;SDS011;43284;47.042;15.498;2023-06-10T14:31:15;6.32;;;4.13;;
57441;SDS011;43284;47.042;15.498;2023-06-10T14:33:42;6.63;;;4.43;;
57441;SDS011;43284;47.042;15.498;2023-06-10T14:36:09;6.03;;;4.60;;
57441;SDS011;43284;47.042;15.498;2023-06-10T14:38:35;7.53;;;4.70;;
57441;SDS011;43284;47.042;15.498;2023-06-10T14:41:02;6.38;;;4.63;;
57441;SDS011;43284;47.042;15.498;2023-06-10T14:43:27;7.90;;;4.65;;
57441;SDS011;43284;47.042;15.498;2023-06-10T14:45:53;6.88;;;4.93;;
57441;SDS011;43284;47.042;15.498;2023-06-10T14:48:21;10.35;;;4.90;;